Time;durP1;ratioP1;P1;durP2;ratioP2;P2;SDS_P1;SDS_P2;PMS_P1;PMS_P2;Temp;Humidity;BMP_temperature;BMP_pressure;BME280_temperature;BME280_humidity;BME280_pressure;Samples;Min_cycle;Max_cycle;Signal;HPM_P1;HPM_P2
2022/03/01 00:01:09;;;;;;;8.80;2.10;;;22.00;91.70;;;;;;5052178;28;20191;-79
2022/03/01 00:03:37;;;;;;;7.23;1.77;;;21.90;91.30;;;;;;5051548;28;20183;-76
2022/03/01 00:06:07;;;;;;;12.60;1.83;;;22.00;91.40;;;;;;5051654;28;20203;-78
2022/03/01 00:08:34;;;;;;;10.83;2.00;;;22.00;90.70;;;;;;5051727;28;20184;-78
2022/03/01 00:11:02;;;;;;;7.83;1.80;;;22.10;90.80;;;;;;5050454;28;20183;-76
2022/03/01 00:13:33;;;;;;;15.23;2.43;;;22.30;90.50;;;;;;5050927;28;20661;-76
2022/03/01 00:16:01;;;;;;;12.00;2.57;;;22.40;89.80;;;;;;5047028;28;20220;-76
2022/03/01 00:18:28;;;;;;;10.60;1.70;;;22.60;89.60;;;;;;5051699;28;20183;-80
2022/03/01 00:20:56;;;;;;;14.13;2.50;;;22.80;88.40;;;;;;5051857;28;20180;-78
2022/03/01 00:23:23;;;;;;;9.70;1.70;;;22.90;87.90;;;;;;5055132;28;20233;-75
2022/03/01 00:25:50;;;;;;;7.20;1.40;;;22.80;88.10;;;;;;5056938;28;20665;-75
2022/03/01 00:28:18;;;;;;;9.77;2.00;;;22.70;87.80;;;;;;5050671;28;20226;-80
2022/03/01 00:30:45;;;;;;;14.50;2.17;;;22.30;90.30;;;;;;5055315;28;20577;-78
2022/03/01 00:33:12;;;;;;;12.90;2.20;;;22.20;91.40;;;;;;5056520;28;20176;-74
2022/03/01 00:35:40;;;;;;;12.03;2.27;;;22.10;91.80;;;;;;5055422;28;20222;-74
2022/03/01 00:38:07;;;;;;;17.53;2.67;;;22.20;91.60;;;;;;5055377;28;20230;-75
2022/03/01 00:40:34;;;;;;;15.43;2.80;;;22.30;91.20;;;;;;5054605;28;20187;-77
2022/03/01 00:43:02;;;;;;;8.53;2.23;;;22.60;90.40;;;;;;5053834;28;20195;-74
2022/03/01 00:45:31;;;;;;;10.30;2.53;;;22.80;88.90;;;;;;5056908;28;20180;-73
2022/03/01 00:47:58;;;;;;;9.17;2.40;;;22.80;88.20;;;;;;5054451;28;20244;-74
2022/03/01 00:50:26;;;;;;;9.33;2.00;;;22.80;88.30;;;;;;5058265;28;20646;-74
2022/03/01 00:52:55;;;;;;;9.23;1.53;;;22.80;88.00;;;;;;5067472;28;20175;-74
2022/03/01 00:55:22;;;;;;;10.43;2.33;;;22.70;87.80;;;;;;5055288;28;20298;-75
2022/03/01 00:57:50;;;;;;;18.30;2.87;;;22.50;88.80;;;;;;5054476;28;20176;-74
2022/03/01 01:00:17;;;;;;;16.27;2.40;;;22.50;89.90;;;;;;5053735;28;20246;-73
2022/03/01 01:02:45;;;;;;;9.97;2.23;;;22.20;90.50;;;;;;5053763;28;20230;-71
2022/03/01 01:05:12;;;;;;;12.30;1.90;;;22.20;91.40;;;;;;5054556;28;20214;-76
2022/03/01 01:07:40;;;;;;;8.87;2.00;;;22.00;91.50;;;;;;5054434;28;20191;-73
2022/03/01 01:10:08;;;;;;;7.47;2.00;;;21.70;92.40;;;;;;5054021;28;20192;-74
2022/03/01 01:12:36;;;;;;;13.00;2.27;;;21.60;92.90;;;;;;5054289;28;20208;-75
2022/03/01 01:15:04;;;;;;;9.13;1.80;;;21.70;93.20;;;;;;5053919;28;20242;-72
2022/03/01 01:17:32;;;;;;;10.97;2.20;;;21.80;93.10;;;;;;5053616;28;20199;-72
2022/03/01 01:20:00;;;;;;;10.03;2.33;;;22.30;93.40;;;;;;5054340;28;20329;-76
2022/03/01 01:22:42;;;;;;;11.23;2.03;;;22.80;91.90;;;;;;5053688;28;20188;-75
2022/03/01 01:25:18;;;;;;;11.17;2.03;;;22.80;90.80;;;;;;5052297;28;20176;-76
2022/03/01 01:27:52;;;;;;;16.80;2.63;;;22.70;89.20;;;;;;5046071;28;20183;-75
2022/03/01 01:30:21;;;;;;;11.23;2.60;;;22.50;90.90;;;;;;5053487;28;20218;-76
2022/03/01 01:32:49;;;;;;;15.03;3.03;;;22.30;91.90;;;;;;5050897;28;20634;-72
2022/03/01 01:35:18;;;;;;;17.17;2.53;;;22.00;92.10;;;;;;5053708;28;20204;-77
2022/03/01 01:37:46;;;;;;;14.27;2.80;;;21.90;92.60;;;;;;5054318;28;20187;-75
2022/03/01 01:40:18;;;;;;;11.17;2.40;;;21.70;91.80;;;;;;5053398;28;20699;-75
2022/03/01 01:42:45;;;;;;;18.90;2.87;;;21.80;92.20;;;;;;5053583;28;20183;-76
2022/03/01 01:45:13;;;;;;;14.53;2.83;;;22.20;92.50;;;;;;5053919;28;20720;-75
2022/03/01 01:47:40;;;;;;;14.00;3.20;;;22.40;92.50;;;;;;5050712;28;20304;-76
2022/03/01 01:50:09;;;;;;;18.23;3.00;;;22.40;91.70;;;;;;5052747;28;20634;-74
2022/03/01 01:52:37;;;;;;;21.63;3.17;;;22.70;91.30;;;;;;5052522;28;20184;-77
2022/03/01 01:55:05;;;;;;;14.17;2.87;;;22.90;89.90;;;;;;5052933;28;20616;-75
2022/03/01 01:57:35;;;;;;;21.33;3.03;;;22.80;89.40;;;;;;5052853;28;20713;-80
2022/03/01 02:00:04;;;;;;;11.13;2.80;;;22.80;89.00;;;;;;5053322;28;20199;-76
2022/03/01 02:02:33;;;;;;;13.80;2.90;;;22.60;88.70;;;;;;5052892;28;20191;-77
2022/03/01 02:05:02;;;;;;;17.83;2.70;;;22.70;87.70;;;;;;5052001;28;20203;-82
2022/03/01 02:07:29;;;;;;;13.97;2.27;;;22.80;87.30;;;;;;5053886;28;20191;-76
2022/03/01 02:09:57;;;;;;;12.37;2.27;;;22.80;86.60;;;;;;5052314;28;20188;-77
2022/03/01 02:12:24;;;;;;;10.90;2.30;;;23.10;87.90;;;;;;5054138;28;20180;-79
2022/03/01 02:14:52;;;;;;;18.07;2.70;;;23.40;86.40;;;;;;5054643;28;20298;-76
2022/03/01 02:17:20;;;;;;;14.83;2.40;;;23.60;86.50;;;;;;5052570;28;20196;-78
2022/03/01 02:19:52;;;;;;;14.07;2.83;;;23.80;86.10;;;;;;5053505;28;20212;-77
2022/03/01 02:22:20;;;;;;;14.00;2.50;;;23.90;85.80;;;;;;5055962;28;20274;-77
2022/03/01 02:24:50;;;;;;;14.23;2.23;;;24.00;85.40;;;;;;5061276;28;20211;-78
2022/03/01 02:27:19;;;;;;;13.27;2.87;;;24.40;85.60;;;;;;5054158;28;20183;-76
2022/03/01 02:29:46;;;;;;;12.33;2.37;;;24.20;85.50;;;;;;5051948;28;20669;-81
2022/03/01 02:32:14;;;;;;;11.40;2.43;;;23.50;87.10;;;;;;5052003;28;20232;-79
2022/03/01 02:34:41;;;;;;;9.83;1.93;;;23.00;90.20;;;;;;5051656;28;20216;-81
2022/03/01 02:37:08;;;;;;;8.20;1.90;;;22.80;88.60;;;;;;5051709;28;20176;-80
2022/03/01 02:39:36;;;;;;;18.17;2.33;;;22.60;89.90;;;;;;5051661;28;20256;-78
2022/03/01 02:42:03;;;;;;;14.10;2.47;;;22.80;90.30;;;;;;5051409;28;20191;-81
2022/03/01 02:44:31;;;;;;;12.83;2.00;;;23.30;88.00;;;;;;5049725;28;20195;-76
2022/03/01 02:46:58;;;;;;;11.93;2.03;;;23.10;89.30;;;;;;5050187;28;20240;-77
2022/03/01 02:49:26;;;;;;;13.53;3.07;;;22.90;88.70;;;;;;5050174;28;20199;-77
2022/03/01 02:51:53;;;;;;;10.07;2.23;;;22.40;89.70;;;;;;5046677;28;20192;-75
2022/03/01 02:54:20;;;;;;;11.60;2.30;;;22.10;90.90;;;;;;5049201;28;20211;-74
2022/03/01 02:56:47;;;;;;;14.30;2.83;;;21.90;91.80;;;;;;5051711;28;20199;-74
2022/03/01 02:59:15;;;;;;;13.87;2.77;;;21.90;92.90;;;;;;5051416;28;20267;-74
2022/03/01 03:01:42;;;;;;;15.80;3.03;;;21.80;92.50;;;;;;5052138;28;20650;-77
2022/03/01 03:04:09;;;;;;;14.47;3.00;;;21.90;92.70;;;;;;5052172;28;20208;-76
2022/03/01 03:06:37;;;;;;;10.33;2.33;;;21.90;91.30;;;;;;5052644;28;20172;-79
2022/03/01 03:09:04;;;;;;;17.20;3.03;;;21.90;91.40;;;;;;5052351;28;20180;-77
2022/03/01 03:11:31;;;;;;;14.40;2.83;;;22.00;91.00;;;;;;5051076;28;20195;-76
2022/03/01 03:13:59;;;;;;;9.83;2.13;;;22.30;90.90;;;;;;5045660;28;20184;-75
2022/03/01 03:16:27;;;;;;;13.57;2.73;;;22.30;90.00;;;;;;5051455;28;21508;-77
2022/03/01 03:18:54;;;;;;;16.53;3.00;;;22.50;90.50;;;;;;5050677;28;20191;-74
2022/03/01 03:21:22;;;;;;;15.57;2.90;;;22.80;90.90;;;;;;5050670;28;20218;-75
2022/03/01 03:23:50;;;;;;;17.50;3.37;;;22.60;89.80;;;;;;5051799;28;20852;-74
2022/03/01 03:26:17;;;;;;;18.30;2.83;;;22.50;89.90;;;;;;5050438;28;20623;-76
2022/03/01 03:28:44;;;;;;;10.87;2.63;;;22.70;90.70;;;;;;5046562;28;20546;-76
2022/03/01 03:31:12;;;;;;;22.53;4.13;;;22.80;90.30;;;;;;5050185;28;20187;-75
2022/03/01 03:33:40;;;;;;;17.07;3.40;;;23.00;90.70;;;;;;5052029;28;20607;-76
2022/03/01 03:36:08;;;;;;;17.60;3.43;;;23.00;89.30;;;;;;5051875;28;20215;-76
2022/03/01 03:38:35;;;;;;;13.60;3.30;;;23.30;90.60;;;;;;5049589;28;20196;-74
2022/03/01 03:41:03;;;;;;;12.17;2.60;;;23.30;89.60;;;;;;5050887;28;21007;-73
2022/03/01 03:43:30;;;;;;;15.77;2.90;;;23.30;88.80;;;;;;5051174;28;20188;-73
2022/03/01 03:45:58;;;;;;;12.90;2.87;;;22.80;90.00;;;;;;5052117;28;20184;-73
2022/03/01 03:48:25;;;;;;;11.77;2.60;;;22.70;91.20;;;;;;5051682;28;20230;-75
2022/03/01 03:50:53;;;;;;;12.67;2.10;;;22.60;90.80;;;;;;5051980;28;20187;-74
2022/03/01 03:53:20;;;;;;;12.73;2.67;;;22.20;90.80;;;;;;5052527;28;20175;-76
2022/03/01 03:55:47;;;;;;;14.83;2.77;;;22.00;91.60;;;;;;5054113;28;20216;-77
2022/03/01 03:58:15;;;;;;;5.27;1.73;;;21.60;92.20;;;;;;5065714;28;20192;-75
2022/03/01 04:00:42;;;;;;;7.00;1.50;;;21.20;90.90;;;;;;5055311;28;20621;-76
2022/03/01 04:06:32;;;;;;;8.10;2.07;;;21.00;91.70;;;;;;5053730;28;20238;-74
2022/03/01 05:56:23;;;;;;;15.93;2.30;;;23.50;81.20;;;;;;3590241;29;20220;-71
2022/03/01 05:58:50;;;;;;;20.37;2.97;;;23.40;81.70;;;;;;4933589;29;20192;-75
2022/03/01 06:01:17;;;;;;;19.37;2.60;;;23.40;81.50;;;;;;4931397;29;20697;-72
2022/03/01 06:03:45;;;;;;;15.63;3.90;;;23.30;82.20;;;;;;4933234;29;20250;-75
2022/03/01 06:06:12;;;;;;;16.73;3.00;;;23.30;81.20;;;;;;4932949;29;20184;-75
2022/03/01 06:08:39;;;;;;;18.23;3.20;;;23.30;81.90;;;;;;4932221;29;20279;-75
2022/03/01 06:11:07;;;;;;;15.47;2.97;;;23.40;81.20;;;;;;4934168;29;20278;-75
2022/03/01 06:13:34;;;;;;;14.63;2.63;;;23.40;81.10;;;;;;4934044;29;20186;-79
2022/03/01 06:16:02;;;;;;;20.27;3.33;;;23.40;81.00;;;;;;4933574;29;20222;-77
2022/03/01 06:18:29;;;;;;;17.80;3.40;;;23.20;81.50;;;;;;4932723;29;20190;-74
2022/03/01 06:20:58;;;;;;;13.33;2.30;;;23.20;83.10;;;;;;4929802;29;20188;-78
2022/03/01 06:23:25;;;;;;;19.10;3.07;;;23.20;82.20;;;;;;4932972;29;20213;-77
2022/03/01 06:25:53;;;;;;;14.30;2.70;;;23.40;81.90;;;;;;4932597;29;20211;-74
2022/03/01 06:28:20;;;;;;;15.23;3.00;;;23.30;82.60;;;;;;4932981;29;20662;-77
2022/03/01 06:30:48;;;;;;;16.23;2.73;;;22.50;87.10;;;;;;4927380;29;20184;-76
2022/03/01 06:33:18;;;;;;;19.20;3.67;;;21.70;90.60;;;;;;4928994;29;20294;-77
2022/03/01 06:35:46;;;;;;;15.67;3.03;;;21.40;91.60;;;;;;4922094;29;20307;-73
2022/03/01 06:38:14;;;;;;;20.67;4.10;;;21.20;90.70;;;;;;4913173;29;20192;-72
2022/03/01 06:40:41;;;;;;;17.37;2.70;;;21.20;90.90;;;;;;4906083;29;20192;-71
2022/03/01 06:43:08;;;;;;;21.33;2.73;;;21.20;91.10;;;;;;4916002;29;20171;-71
2022/03/01 06:48:11;;;;;;;21.90;3.47;;;21.10;91.10;;;;;;5213927;23;20242;-75
2022/03/01 06:50:38;;;;;;;16.60;3.63;;;21.20;91.50;;;;;;4934168;29;20188;-76
2022/03/01 06:53:06;;;;;;;13.57;2.97;;;21.30;90.90;;;;;;4935256;29;20201;-75
2022/03/01 06:55:34;;;;;;;10.63;2.33;;;21.40;89.30;;;;;;4931499;29;20211;-74
2022/03/01 06:58:01;;;;;;;12.70;2.60;;;21.50;87.60;;;;;;4921204;29;20628;-79
2022/03/01 07:00:28;;;;;;;16.50;2.87;;;21.50;87.20;;;;;;4926316;29;20194;-80
2022/03/01 07:02:56;;;;;;;17.23;3.33;;;21.60;86.90;;;;;;4928128;29;20830;-76
2022/03/01 07:05:23;;;;;;;14.80;3.23;;;21.60;86.50;;;;;;4931078;29;20652;-78
2022/03/01 07:07:51;;;;;;;15.17;2.83;;;21.70;85.70;;;;;;4933000;29;20180;-76
2022/03/01 07:10:18;;;;;;;13.13;2.07;;;21.80;85.50;;;;;;4934042;29;20180;-77
2022/03/01 07:12:47;;;;;;;17.37;2.90;;;21.80;85.60;;;;;;4934785;29;20211;-77
2022/03/01 07:15:15;;;;;;;11.00;2.20;;;21.80;84.90;;;;;;4935178;29;20218;-77
2022/03/01 07:17:43;;;;;;;14.90;2.57;;;21.90;84.60;;;;;;4934010;29;20219;-75
2022/03/01 07:20:11;;;;;;;13.57;2.20;;;21.90;84.10;;;;;;4933715;29;20200;-77
2022/03/01 07:22:39;;;;;;;13.50;2.33;;;21.90;83.90;;;;;;4921286;29;20192;-77
2022/03/01 07:25:07;;;;;;;21.07;3.27;;;21.90;83.90;;;;;;4931432;29;20282;-76
2022/03/01 07:27:35;;;;;;;10.53;2.60;;;22.00;84.20;;;;;;4932905;29;20188;-77
2022/03/01 07:30:02;;;;;;;12.83;2.27;;;22.00;83.50;;;;;;4933796;29;20195;-75
2022/03/01 07:32:30;;;;;;;18.97;2.97;;;22.00;84.20;;;;;;4931389;29;20259;-76
2022/03/01 07:34:57;;;;;;;17.47;3.33;;;22.00;84.30;;;;;;4934596;29;20302;-74
2022/03/01 07:37:24;;;;;;;11.07;2.73;;;22.10;84.90;;;;;;4934636;29;20338;-75
2022/03/01 07:39:55;;;;;;;17.40;2.70;;;22.10;84.60;;;;;;4930238;29;20191;-75
2022/03/01 07:42:22;;;;;;;17.50;3.03;;;22.10;84.50;;;;;;4931479;29;20275;-75
2022/03/01 07:44:50;;;;;;;16.57;2.50;;;22.10;84.70;;;;;;4934605;29;20649;-76
2022/03/01 07:47:17;;;;;;;20.90;3.17;;;22.10;84.50;;;;;;4930356;29;20243;-75
2022/03/01 07:49:47;;;;;;;18.37;3.17;;;22.00;84.70;;;;;;4934405;29;20191;-75
2022/03/01 07:52:14;;;;;;;13.93;2.70;;;22.00;85.80;;;;;;4930959;29;20219;-75
2022/03/01 07:54:41;;;;;;;13.43;3.03;;;21.90;86.40;;;;;;4915560;29;20691;-76
2022/03/01 07:57:09;;;;;;;13.03;2.63;;;21.60;88.80;;;;;;4933143;29;20638;-75
2022/03/01 07:59:36;;;;;;;14.33;2.73;;;21.10;91.00;;;;;;4934154;29;20597;-78
2022/03/01 08:02:04;;;;;;;16.43;3.07;;;20.90;91.50;;;;;;4930299;29;20180;-76
2022/03/01 08:04:31;;;;;;;16.07;3.63;;;20.80;92.50;;;;;;4933378;29;20179;-76
2022/03/01 08:06:59;;;;;;;16.00;3.17;;;20.80;93.10;;;;;;4932813;29;20192;-75
2022/03/01 08:09:26;;;;;;;26.73;3.83;;;20.80;93.30;;;;;;4930126;29;20188;-75
2022/03/01 08:11:53;;;;;;;32.90;5.13;;;20.80;93.60;;;;;;4933687;29;20247;-77
2022/03/01 08:14:20;;;;;;;21.43;4.87;;;20.80;93.40;;;;;;4924152;29;20593;-77
2022/03/01 08:16:48;;;;;;;28.87;5.43;;;20.80;93.30;;;;;;4933708;29;20196;-77
2022/03/01 08:19:15;;;;;;;19.80;4.67;;;20.80;93.20;;;;;;4921293;29;20549;-75
2022/03/01 08:21:42;;;;;;;27.80;4.83;;;20.80;92.70;;;;;;4932633;29;20184;-75
2022/03/01 08:24:10;;;;;;;23.50;4.73;;;20.80;92.80;;;;;;4932018;29;20180;-76
2022/03/01 08:26:38;;;;;;;17.30;3.97;;;20.90;92.10;;;;;;4932121;29;20275;-75
2022/03/01 08:29:05;;;;;;;20.80;3.50;;;21.00;92.00;;;;;;4934141;29;20216;-77
2022/03/01 08:31:33;;;;;;;19.33;4.30;;;21.00;92.20;;;;;;4932987;29;20246;-77
2022/03/01 08:34:00;;;;;;;19.30;3.37;;;21.00;92.50;;;;;;4931036;29;20223;-78
2022/03/01 08:36:27;;;;;;;23.53;4.27;;;21.10;92.30;;;;;;4936283;29;20319;-75
2022/03/01 08:38:55;;;;;;;19.93;4.17;;;21.10;92.30;;;;;;4934267;29;20216;-73
2022/03/01 08:41:23;;;;;;;19.43;3.77;;;21.10;92.70;;;;;;4933852;29;20184;-73
2022/03/01 08:43:50;;;;;;;12.53;3.80;;;21.10;92.50;;;;;;4935221;29;20218;-73
2022/03/01 08:46:18;;;;;;;20.37;3.73;;;21.10;92.80;;;;;;4935694;29;20188;-75
2022/03/01 08:48:46;;;;;;;20.80;4.47;;;21.20;93.00;;;;;;4932351;29;20224;-76
2022/03/01 08:51:13;;;;;;;19.50;4.17;;;21.20;93.30;;;;;;4936133;29;20637;-75
2022/03/01 08:53:41;;;;;;;23.07;3.83;;;21.10;93.00;;;;;;4929986;29;20819;-74
2022/03/01 08:56:09;;;;;;;20.43;4.37;;;21.10;92.40;;;;;;4933590;29;20338;-75
2022/03/01 08:58:36;;;;;;;12.40;3.23;;;21.00;92.10;;;;;;4934295;29;20177;-73
2022/03/01 09:01:04;;;;;;;15.80;3.00;;;21.00;91.70;;;;;;4936586;29;20200;-74
2022/03/01 09:03:33;;;;;;;17.10;3.63;;;21.00;91.60;;;;;;4933144;29;20653;-75
2022/03/01 09:06:00;;;;;;;16.80;3.30;;;21.00;91.20;;;;;;4936816;29;20194;-74
2022/03/01 09:08:27;;;;;;;20.93;3.63;;;20.90;91.00;;;;;;4933658;29;20188;-75
2022/03/01 09:10:55;;;;;;;21.30;3.93;;;20.90;90.70;;;;;;4937361;29;20192;-74
2022/03/01 09:13:22;;;;;;;14.57;2.80;;;20.90;90.20;;;;;;4936365;29;20246;-72
2022/03/01 09:15:49;;;;;;;14.77;3.17;;;21.00;89.90;;;;;;4935022;29;20219;-73
2022/03/01 09:18:16;;;;;;;16.27;3.53;;;21.00;90.00;;;;;;4933785;29;20176;-74
2022/03/01 09:20:44;;;;;;;21.13;3.40;;;21.00;90.20;;;;;;4935944;29;20187;-75
2022/03/01 09:23:11;;;;;;;15.90;2.73;;;21.00;90.30;;;;;;4937121;29;20564;-74
2022/03/01 09:25:38;;;;;;;13.73;2.70;;;21.00;90.40;;;;;;4931540;29;20204;-73
2022/03/01 09:28:06;;;;;;;10.97;2.57;;;21.00;90.30;;;;;;4935898;29;20216;-75
2022/03/01 09:30:34;;;;;;;16.90;2.97;;;21.10;88.90;;;;;;4934129;29;20536;-75
2022/03/01 09:33:02;;;;;;;16.40;3.67;;;21.20;88.90;;;;;;4936307;29;20176;-79
2022/03/01 09:35:30;;;;;;;12.07;2.67;;;21.10;88.80;;;;;;4934868;29;20212;-81
2022/03/01 09:37:57;;;;;;;21.60;2.80;;;21.20;88.60;;;;;;4935772;29;20517;-77
2022/03/01 09:40:25;;;;;;;15.03;2.80;;;21.30;87.70;;;;;;4935862;29;20593;-80
2022/03/01 09:42:54;;;;;;;14.27;2.90;;;21.30;87.70;;;;;;4935834;29;20187;-79
2022/03/01 09:45:22;;;;;;;12.27;2.60;;;21.40;87.10;;;;;;4935360;29;20529;-78
2022/03/01 09:47:51;;;;;;;16.67;2.97;;;21.30;87.20;;;;;;4935840;29;20311;-77
2022/03/01 09:50:21;;;;;;;17.27;3.10;;;21.30;87.70;;;;;;4934051;29;20645;-79
2022/03/01 09:52:49;;;;;;;14.33;2.67;;;21.30;87.50;;;;;;4934945;29;20214;-81
2022/03/01 09:55:16;;;;;;;16.97;2.30;;;21.30;87.70;;;;;;4929169;29;20222;-79
2022/03/01 09:57:44;;;;;;;13.80;3.10;;;21.30;87.40;;;;;;4935756;29;20733;-77
2022/03/01 10:00:14;;;;;;;14.63;2.50;;;21.30;87.60;;;;;;4929646;29;20623;-78
2022/03/01 10:02:44;;;;;;;13.90;2.67;;;21.30;86.90;;;;;;4934488;29;20192;-78
2022/03/01 10:05:13;;;;;;;9.37;2.20;;;21.30;86.80;;;;;;4935627;29;20186;-74
2022/03/01 10:07:45;;;;;;;12.40;2.17;;;21.40;84.80;;;;;;4933652;29;20189;-77
2022/03/01 10:10:18;;;;;;;12.83;2.50;;;21.50;84.00;;;;;;4934701;29;20573;-78
2022/03/01 10:12:53;;;;;;;12.20;1.83;;;21.50;83.40;;;;;;4935893;29;20183;-78
2022/03/01 10:15:32;;;;;;;13.33;2.50;;;21.50;83.50;;;;;;4934353;29;20311;-74
2022/03/01 10:18:09;;;;;;;14.40;3.10;;;21.40;83.80;;;;;;4935106;29;20168;-75
2022/03/01 10:20:39;;;;;;;10.03;1.70;;;21.50;84.10;;;;;;4934183;29;20190;-76
2022/03/01 10:23:07;;;;;;;12.63;1.97;;;21.50;83.70;;;;;;4935749;29;20180;-75
2022/03/01 10:25:39;;;;;;;18.43;2.10;;;21.60;83.20;;;;;;4935327;29;20196;-77
2022/03/01 10:28:07;;;;;;;11.57;2.00;;;21.60;83.40;;;;;;4935667;29;20654;-75
2022/03/01 10:30:37;;;;;;;16.93;2.53;;;21.60;83.40;;;;;;4934595;29;20184;-77
2022/03/01 10:33:06;;;;;;;10.73;2.70;;;21.60;83.80;;;;;;4935714;29;20192;-76
2022/03/01 10:35:35;;;;;;;15.77;2.30;;;21.70;83.40;;;;;;4934856;29;20263;-78
2022/03/01 10:38:04;;;;;;;9.60;2.37;;;21.70;84.00;;;;;;4934861;29;20650;-78
2022/03/01 10:40:32;;;;;;;16.93;3.10;;;21.80;83.50;;;;;;4934586;29;20212;-78
2022/03/01 10:43:03;;;;;;;12.33;1.93;;;21.80;85.30;;;;;;4929508;29;20513;-78
2022/03/01 10:45:36;;;;;;;10.63;1.90;;;21.70;86.50;;;;;;4934390;29;20183;-81
2022/03/01 10:48:05;;;;;;;5.67;1.50;;;21.70;86.40;;;;;;4928086;29;20227;-75
2022/03/01 10:50:33;;;;;;;13.57;2.03;;;21.60;86.60;;;;;;4933429;29;20192;-78
2022/03/01 10:53:01;;;;;;;7.70;1.80;;;21.60;86.50;;;;;;4930076;29;20579;-75
2022/03/01 10:55:34;;;;;;;8.87;1.90;;;21.50;86.70;;;;;;4934635;29;20227;-77
2022/03/01 10:58:08;;;;;;;11.67;2.13;;;21.40;86.40;;;;;;4920334;29;20195;-77
2022/03/01 11:00:37;;;;;;;13.17;2.40;;;21.40;85.90;;;;;;4930773;29;20596;-75
2022/03/01 11:03:06;;;;;;;12.03;2.27;;;21.40;85.80;;;;;;4934458;29;21287;-76
2022/03/01 11:05:35;;;;;;;15.73;1.87;;;21.40;85.90;;;;;;4934425;29;20176;-76
2022/03/01 11:08:08;;;;;;;10.03;1.97;;;21.40;86.30;;;;;;4929302;29;20176;-76
2022/03/01 11:10:38;;;;;;;15.33;2.93;;;21.40;86.40;;;;;;4934106;29;20635;-77
2022/03/01 11:13:08;;;;;;;13.53;2.77;;;21.40;86.40;;;;;;4928273;29;20227;-76
2022/03/01 11:15:41;;;;;;;14.90;2.30;;;21.40;86.80;;;;;;4934260;29;20896;-78
2022/03/01 11:18:44;;;;;;;20.97;2.97;;;21.40;87.00;;;;;;4935376;29;20172;-78
2022/03/01 11:21:13;;;;;;;16.30;2.63;;;21.40;87.20;;;;;;4917608;29;20234;-77
2022/03/01 11:23:42;;;;;;;20.47;3.60;;;21.30;87.40;;;;;;4933893;29;20192;-77
2022/03/01 11:26:15;;;;;;;19.50;3.50;;;21.40;87.50;;;;;;4932176;29;20184;-76
2022/03/01 11:28:55;;;;;;;17.80;2.80;;;21.50;87.40;;;;;;4931704;29;20274;-76
2022/03/01 11:31:26;;;;;;;15.50;3.77;;;21.50;87.30;;;;;;4934289;29;20184;-78
2022/03/01 11:33:59;;;;;;;21.80;3.30;;;21.60;87.20;;;;;;4929706;29;20551;-77
2022/03/01 11:36:29;;;;;;;21.30;4.13;;;21.50;87.60;;;;;;4934022;29;20231;-77
2022/03/01 11:39:13;;;;;;;15.10;2.93;;;21.60;87.40;;;;;;4933092;29;20196;-79
2022/03/01 11:41:46;;;;;;;19.93;3.70;;;21.60;87.40;;;;;;4931749;29;20266;-79
2022/03/01 11:44:22;;;;;;;13.83;2.50;;;21.60;87.80;;;;;;4932889;29;20296;-78
2022/03/01 11:46:50;;;;;;;15.63;3.50;;;21.70;87.90;;;;;;4917530;29;20258;-77
2022/03/01 11:49:20;;;;;;;14.80;2.60;;;21.60;88.20;;;;;;4934454;29;20734;-79
2022/03/01 11:51:54;;;;;;;17.33;2.97;;;21.60;88.50;;;;;;4933078;29;20191;-77
2022/03/01 11:54:36;;;;;;;24.60;3.07;;;21.60;88.80;;;;;;4933946;29;20657;-78
2022/03/01 11:57:07;;;;;;;16.83;3.03;;;21.60;89.00;;;;;;4930901;29;20266;-77
2022/03/01 11:59:38;;;;;;;14.40;2.77;;;21.50;89.00;;;;;;4934365;29;20187;-74
2022/03/01 12:02:10;;;;;;;21.10;2.83;;;21.50;89.10;;;;;;4934353;29;20176;-74
2022/03/01 12:04:49;;;;;;;15.37;2.97;;;21.50;88.70;;;;;;4934021;29;20187;-77
2022/03/01 12:07:22;;;;;;;15.70;2.70;;;21.50;88.50;;;;;;4934436;29;20238;-77
2022/03/01 12:10:00;;;;;;;16.57;3.20;;;21.60;88.80;;;;;;4933375;29;20176;-77
2022/03/01 12:12:44;;;;;;;14.43;2.47;;;21.50;88.20;;;;;;4933943;29;20521;-76
2022/03/01 12:15:12;;;;;;;14.10;2.90;;;21.60;87.50;;;;;;4931695;29;20212;-77
2022/03/01 12:17:43;;;;;;;15.80;3.37;;;21.50;87.60;;;;;;4933895;29;20651;-77
2022/03/01 12:20:14;;;;;;;13.53;2.67;;;21.50;87.70;;;;;;4938662;29;20206;-77
2022/03/01 12:23:12;;;;;;;16.13;2.73;;;21.50;87.10;;;;;;4927208;29;20685;-75
2022/03/01 12:25:40;;;;;;;13.93;3.10;;;21.50;86.70;;;;;;4930896;29;20263;-76
2022/03/01 12:28:11;;;;;;;12.67;2.57;;;21.50;87.20;;;;;;4938371;29;20223;-77
2022/03/01 12:30:44;;;;;;;19.70;3.13;;;21.40;87.60;;;;;;4937714;29;20720;-77
2022/03/01 12:33:13;;;;;;;16.37;2.77;;;21.30;87.80;;;;;;4937676;29;20180;-76
2022/03/01 12:35:41;;;;;;;20.70;6.00;;;21.30;87.90;;;;;;4923538;29;20236;-75
2022/03/01 12:38:11;;;;;;;15.23;4.37;;;21.30;88.20;;;;;;4937909;29;20188;-75
2022/03/01 12:40:40;;;;;;;17.80;3.70;;;21.30;88.60;;;;;;4937170;29;20183;-76
2022/03/01 12:43:10;;;;;;;18.13;3.00;;;21.30;89.20;;;;;;4938027;29;20186;-78
2022/03/01 12:45:43;;;;;;;18.23;3.10;;;21.20;89.50;;;;;;4936024;29;20180;-75
2022/03/01 12:48:13;;;;;;;15.37;3.53;;;21.20;89.90;;;;;;4937389;29;20236;-76
2022/03/01 12:50:49;;;;;;;18.10;3.30;;;21.20;90.10;;;;;;4935890;29;20784;-77
2022/03/01 12:53:17;;;;;;;15.77;2.60;;;21.20;90.30;;;;;;4936719;29;20227;-75
2022/03/01 12:55:49;;;;;;;18.30;3.63;;;21.20;90.40;;;;;;4937027;29;20223;-75
2022/03/01 12:58:22;;;;;;;22.80;3.00;;;21.20;90.50;;;;;;4937257;29;20223;-76
2022/03/01 13:00:51;;;;;;;13.03;2.80;;;21.20;90.60;;;;;;4937623;29;20188;-75
2022/03/01 13:03:29;;;;;;;19.70;3.70;;;21.30;90.50;;;;;;4937394;29;20180;-75
2022/03/01 13:06:09;;;;;;;20.63;3.53;;;21.20;90.10;;;;;;4936291;29;20202;-74
2022/03/01 13:12:25;;;;;;;16.27;2.93;;;21.20;89.50;;;;;;4931544;29;20202;-78
2022/03/01 13:14:56;;;;;;;15.67;3.03;;;21.20;88.60;;;;;;4935705;29;20208;-76
2022/03/01 13:17:23;;;;;;;14.50;2.93;;;21.30;88.10;;;;;;4935170;29;20188;-75
2022/03/01 13:20:01;;;;;;;17.13;3.00;;;21.50;87.80;;;;;;4934618;29;20184;-75
2022/03/01 13:22:28;;;;;;;15.23;2.93;;;21.60;87.60;;;;;;4933725;29;20191;-75
2022/03/01 13:24:55;;;;;;;14.93;2.67;;;21.60;87.30;;;;;;4937090;29;20274;-75
2022/03/01 13:27:23;;;;;;;17.47;2.97;;;21.70;86.80;;;;;;4936137;29;20655;-75
2022/03/01 13:29:51;;;;;;;15.03;2.67;;;21.60;87.00;;;;;;4934902;29;20258;-75
2022/03/01 13:32:23;;;;;;;16.37;2.80;;;21.60;86.90;;;;;;4936134;29;20196;-76
2022/03/01 13:35:07;;;;;;;16.40;2.70;;;21.60;86.90;;;;;;4934881;29;20274;-76
2022/03/01 13:37:40;;;;;;;14.77;2.30;;;21.50;86.90;;;;;;4931775;29;20180;-76
2022/03/01 13:40:08;;;;;;;17.50;2.80;;;21.40;86.20;;;;;;4935537;29;20180;-76
2022/03/01 13:42:36;;;;;;;9.80;2.57;;;21.30;86.00;;;;;;4935205;29;20207;-75
2022/03/01 13:45:11;;;;;;;14.33;2.37;;;21.20;85.10;;;;;;4931801;29;20250;-75
2022/03/01 13:47:41;;;;;;;16.33;3.00;;;21.20;84.80;;;;;;4933779;29;20266;-75
2022/03/01 13:50:20;;;;;;;16.03;2.30;;;21.30;84.60;;;;;;4935915;29;20552;-76
2022/03/01 13:52:50;;;;;;;14.20;2.37;;;21.30;84.30;;;;;;4936077;29;20188;-75
2022/03/01 13:55:26;;;;;;;11.97;3.27;;;21.30;84.60;;;;;;4935818;29;20208;-76
2022/03/01 13:57:58;;;;;;;13.87;2.60;;;21.30;85.10;;;;;;4935726;29;20512;-75
2022/03/01 14:00:38;;;;;;;11.97;2.57;;;21.30;85.30;;;;;;4934931;29;20199;-75
2022/03/01 14:03:13;;;;;;;13.30;3.27;;;21.20;85.60;;;;;;4933158;29;20215;-75
2022/03/01 14:05:45;;;;;;;15.43;2.20;;;21.30;85.80;;;;;;4935175;29;20219;-75
2022/03/01 14:08:16;;;;;;;13.60;3.33;;;21.20;86.30;;;;;;4934756;29;20662;-75
2022/03/01 14:10:50;;;;;;;15.33;2.17;;;21.20;86.60;;;;;;4935020;29;20675;-75
2022/03/01 14:13:26;;;;;;;9.10;2.13;;;21.30;86.90;;;;;;4934111;29;20578;-76
2022/03/01 14:16:29;;;;;;;21.17;4.40;;;21.30;87.50;;;;;;4934718;29;20566;-77
2022/03/01 14:19:04;;;;;;;16.20;4.00;;;21.40;88.80;;;;;;4879338;29;20554;-77
2022/03/01 14:21:32;;;;;;;13.17;4.27;;;21.30;89.50;;;;;;4926784;29;20274;-77
2022/03/01 14:24:00;;;;;;;13.77;2.87;;;21.10;90.10;;;;;;4936801;29;20283;-81
2022/03/01 14:26:27;;;;;;;13.20;2.57;;;21.00;90.80;;;;;;4935303;29;20251;-78
2022/03/01 14:29:01;;;;;;;14.50;2.67;;;20.90;91.00;;;;;;4934752;29;20180;-78
2022/03/01 14:31:31;;;;;;;16.33;2.43;;;20.80;91.40;;;;;;4934874;29;20184;-76
2022/03/01 14:33:59;;;;;;;20.03;2.93;;;20.80;92.00;;;;;;4939158;29;20176;-76
2022/03/01 14:36:27;;;;;;;16.13;2.77;;;20.80;92.40;;;;;;4936056;29;20237;-77
2022/03/01 14:38:54;;;;;;;20.27;3.20;;;20.80;92.60;;;;;;4935200;29;20191;-75
2022/03/01 14:41:22;;;;;;;19.07;2.83;;;20.70;92.90;;;;;;4938083;29;20200;-76
2022/03/01 14:43:52;;;;;;;10.77;2.30;;;20.70;92.30;;;;;;4932722;29;20183;-78
2022/03/01 14:46:21;;;;;;;14.50;2.87;;;20.70;92.40;;;;;;4934964;29;20191;-79